Flight Track Log - Related Links

Times and Time Zones

All times are in EDT time to prevent confusion due to time zone crossing. See the UAL33 flight status page for this flight to view local times or setup timezone preferences in your user account.

Time Position Orientation Groundspeed Altitude Reporting Facility
EDT Latitude Longitude Course Direction KTS MPH feet Rate Location/Type
Sun 04:12:52 PM 33.9260 -118.4810 248° West 199 229 3,000  Level FlightAware ADS-B
Sun 04:13:02 PM 33.9220 -118.4940 250° West 213 245 3,300 2,000 Climbing FlightAware ADS-B
Sun 04:13:37 PM 33.9080 -118.5340 247° West 238 274 4,500 2,300 Climbing FlightAware ADS-B
Sun 04:14:02 PM 33.8970 -118.5670 248° West 249 287 5,600 2,400 Climbing FlightAware ADS-B
Sun 04:14:12 PM 33.8920 -118.5750 233° Southwest 252 290 5,900 2,400 Climbing FlightAware ADS-B
Sun 04:14:27 PM 33.8770 -118.5900 220° Southwest 255 293 6,600 2,800 Climbing FlightAware ADS-B
Sun 04:14:42 PM 33.8580 -118.5930 187° South 258 297 7,300 2,600 Climbing FlightAware ADS-B
Sun 04:14:57 PM 33.8420 -118.5840 155° Southeast 258 297 7,900 2,800 Climbing FlightAware ADS-B
Sun 04:15:12 PM 33.8300 -118.5660 129° Southeast 257 296 8,700 2,800 Climbing FlightAware ADS-B
Sun 04:15:27 PM 33.8280 -118.5490 98° East 257 296 9,300 2,800 Climbing FlightAware ADS-B
Sun 04:15:42 PM 33.8340 -118.5270 72° East 258 297 10,100 3,120 Climbing FlightAware ADS-B
Sun 04:15:52 PM 33.8420 -118.5160 49° Northeast 258 297 10,600 2,073 Climbing FlightAware ADS-B
Sun 04:16:37 PM 33.8870 -118.4760 36° Northeast 294 338 12,000 1,624 Climbing FlightAware ADS-B
Sun 04:17:17 PM 33.9320 -118.4320 39° Northeast 337 388 12,900 1,906 Climbing FlightAware ADS-B
Sun 04:18:02 PM 33.9760 -118.3600 54° Northeast 356 410 14,700 2,541 Climbing FlightAware ADS-B
Sun 04:18:42 PM 34.0130 -118.2930 56° Northeast 364 419 16,500 2,550 Climbing FlightAware ADS-B
Sun 04:19:22 PM 34.0510 -118.2260 56° Northeast 373 429 18,100 2,259 Climbing FlightAware ADS-B
Sun 04:20:07 PM 34.0950 -118.1480 56° Northeast 388 447 19,700 2,188 Climbing FlightAware ADS-B
Sun 04:20:47 PM 34.1360 -118.0750 56° Northeast 396 456 21,200 2,188 Climbing FlightAware ADS-B
Sun 04:21:32 PM 34.1840 -117.9910 55° Northeast 404 465 22,800 2,000 Climbing FlightAware ADS-B
Sun 04:22:17 PM 34.2300 -117.9090 56° Northeast 412 474 24,200 1,906 Climbing FlightAware ADS-B
Sun 04:22:57 PM 34.2730 -117.8320 56° Northeast 418 481 25,500 1,875 Climbing FlightAware ADS-B
Sun 04:23:37 PM 34.3220 -117.7570 52° Northeast 422 486 26,700 1,765 Climbing FlightAware ADS-B
Sun 04:24:22 PM 34.3790 -117.6750 50° Northeast 429 494 28,000 1,694 Climbing FlightAware ADS-B
Sun 04:25:02 PM 34.4320 -117.6000 49° Northeast 435 501 29,100 1,412 Climbing FlightAware ADS-B
Sun 04:25:47 PM 34.4910 -117.5160 50° Northeast 446 513 30,000 1,341 Climbing FlightAware ADS-B
Sun 04:26:27 PM 34.5440 -117.4400 50° Northeast 449 517 31,000 1,575 Climbing FlightAware ADS-B
Sun 04:27:07 PM 34.5970 -117.3650 49° Northeast 448 516 32,100 1,624 Climbing FlightAware ADS-B
Sun 04:27:52 PM 34.6590 -117.2760 50° Northeast 450 518 33,300 1,553 Climbing FlightAware ADS-B
Sun 04:28:32 PM 34.7140 -117.1970 50° Northeast 449 517 34,300 1,425 Climbing FlightAware ADS-B
Sun 04:29:12 PM 34.7670 -117.1190 50° Northeast 450 518 35,200 1,341 Climbing FlightAware ADS-B
Sun 04:29:57 PM 34.8250 -117.0350 50° Northeast 446 513 36,200 1,271 Climbing FlightAware ADS-B
Sun 04:30:37 PM 34.8750 -116.9630 50° Northeast 442 509 37,000 600 Climbing FlightAware ADS-B
Sun 04:31:17 PM 34.9300 -116.8830 50° Northeast 439 505 37,000  Level FlightAware ADS-B
Sun 04:32:02 PM 34.9860 -116.8010 50° Northeast 438 504 37,000  Level FlightAware ADS-B
Sun 04:32:42 PM 35.0410 -116.7210 50° Northeast 440 506 37,000  Level FlightAware ADS-B
Sun 04:33:27 PM 35.0980 -116.6370 50° Northeast 443 510 37,000  Level FlightAware ADS-B
Sun 04:34:07 PM 35.1520 -116.5580 50° Northeast 443 510 37,000  Level FlightAware ADS-B
Sun 04:34:52 PM 35.2130 -116.4690 50° Northeast 445 512 37,000  Level FlightAware ADS-B
Sun 04:35:32 PM 35.2610 -116.3980 50° Northeast 446 513 37,000  Level FlightAware ADS-B
Sun 04:36:12 PM 35.3060 -116.3330 50° Northeast 446 513 37,000  Level FlightAware ADS-B
Sun 04:36:57 PM 35.3760 -116.2260 51° Northeast 448 516 37,000  Level FlightAware ADS-B
Sun 04:37:37 PM 35.4290 -116.1490 50° Northeast 448 516 37,000  Level FlightAware ADS-B
Sun 04:38:32 PM 35.5000 -116.0440 50° Northeast 449 517 37,000  Level FlightAware ADS-B
Sun 04:39:17 PM 35.5600 -115.9540 51° Northeast 449 517 37,000  Level FlightAware ADS-B
Sun 04:39:52 PM 35.6050 -115.8870 50° Northeast 449 517 37,000  Level FlightAware ADS-B
Sun 04:40:42 PM 35.6720 -115.7860 51° Northeast 449 517 37,000  Level FlightAware ADS-B
Sun 04:41:22 PM 35.7270 -115.7040 50° Northeast 449 517 37,000  Level FlightAware ADS-B
Sun 04:42:02 PM 35.7790 -115.6250 51° Northeast 449 517 37,000  Level FlightAware ADS-B
Sun 04:42:47 PM 35.8370 -115.5370 51° Northeast 448 516 37,000  Level FlightAware ADS-B
Sun 04:43:27 PM 35.8860 -115.4630 51° Northeast 447 514 37,000  Level FlightAware ADS-B
Sun 04:44:07 PM 35.9420 -115.3780 51° Northeast 447 514 37,000  Level FlightAware ADS-B
Sun 04:44:52 PM 36.0010 -115.2880 51° Northeast 446 513 37,000  Level FlightAware ADS-B
Sun 04:45:32 PM 36.0530 -115.2090 51° Northeast 445 512 37,000  Level FlightAware ADS-B
Sun 04:46:12 PM 36.0960 -115.1210 59° Northeast 444 511 37,000  Level FlightAware ADS-B
Sun 04:46:57 PM 36.1280 -115.0220 68° East 443 510 37,000  Level FlightAware ADS-B
Sun 04:47:37 PM 36.1580 -114.9240 69° East 442 509 37,000  Level FlightAware ADS-B
Sun 04:48:17 PM 36.1870 -114.8290 69° East 440 506 37,000  Level FlightAware ADS-B
Sun 04:49:02 PM 36.2200 -114.7220 69° East 439 505 37,000  Level FlightAware ADS-B
Sun 04:49:42 PM 36.2490 -114.6270 69° East 438 504 37,000  Level FlightAware ADS-B
Sun 04:50:27 PM 36.2800 -114.5260 69° East 437 503 37,000  Level FlightAware ADS-B
Sun 04:51:07 PM 36.3090 -114.4300 69° East 436 502 37,000  Level FlightAware ADS-B
Sun 04:51:52 PM 36.3410 -114.3240 69° East 435 501 37,000  Level FlightAware ADS-B
Sun 04:52:32 PM 36.3700 -114.2290 69° East 435 501 37,000  Level FlightAware ADS-B
Sun 04:53:12 PM 36.3970 -114.1400 69° East 436 502 37,000  Level FlightAware ADS-B
Sun 04:53:57 PM 36.4290 -114.0310 70° East 437 503 37,000  Level FlightAware ADS-B
Sun 04:54:37 PM 36.4580 -113.9360 69° East 438 504 37,000  Level FlightAware ADS-B
Sun 04:55:17 PM 36.4840 -113.8460 70° East 437 503 37,000  Level FlightAware ADS-B
Sun 04:56:02 PM 36.5160 -113.7390 70° East 439 505 37,000  Level FlightAware ADS-B
Sun 04:56:47 PM 36.5480 -113.6290 70° East 440 506 37,000  Level FlightAware ADS-B
Sun 04:57:27 PM 36.5760 -113.5350 70° East 441 507 37,000  Level FlightAware ADS-B
Sun 04:58:12 PM 36.6070 -113.4310 70° East 442 509 37,000  Level FlightAware ADS-B
Sun 04:58:52 PM 36.6350 -113.3330 70° East 444 511 37,000  Level FlightAware ADS-B
Sun 04:59:37 PM 36.6670 -113.2220 70° East 445 512 37,000  Level FlightAware ADS-B
Sun 05:00:17 PM 36.6940 -113.1280 70° East 445 512 37,000  Level FlightAware ADS-B
Sun 05:00:57 PM 36.7220 -113.0320 70° East 446 513 37,000  Level FlightAware ADS-B
Sun 05:01:47 PM 36.7540 -112.9200 70° East 446 513 37,000  Level FlightAware ADS-B
Sun 05:02:37 PM 36.7840 -112.8170 70° East 446 513 37,000  Level FlightAware ADS-B
Sun 05:03:17 PM 36.8080 -112.7350 70° East 446 513 37,000  Level FlightAware ADS-B
Sun 05:03:57 PM 36.8320 -112.6520 70° East 446 513 37,000  Level FlightAware ADS-B
Sun 05:04:37 PM 36.8560 -112.5700 70° East 446 513 37,000  Level FlightAware ADS-B
Sun 05:05:27 PM 36.8860 -112.4670 70° East 446 513 37,000  Level FlightAware ADS-B
Sun 05:06:07 PM 36.9100 -112.3850 70° East 446 513 37,000  Level FlightAware ADS-B
Sun 05:06:47 PM 36.9340 -112.3020 70° East 446 513 37,000  Level FlightAware ADS-B
Sun 05:07:27 PM 36.9580 -112.2200 70° East 446 513 37,000  Level FlightAware ADS-B
Sun 05:08:07 PM 36.9820 -112.1370 70° East 446 513 37,000  Level FlightAware ADS-B
Sun 05:08:57 PM 37.0120 -112.0340 70° East 446 513 37,000  Level FlightAware ADS-B
Sun 05:09:37 PM 37.0360 -111.9510 70° East 446 513 37,000  Level FlightAware ADS-B
Sun 05:10:17 PM 37.0600 -111.8690 70° East 446 513 37,000  Level FlightAware ADS-B
Sun 05:10:57 PM 37.0840 -111.7860 70° East 446 513 37,000  Level FlightAware ADS-B
Sun 05:11:46 PM 37.1564 -111.4597 70° East 448 516 37,000  Level Denver Center
Sun 05:12:47 PM 37.1942 -111.3119 72° East 447 514 37,000  Level Denver Center
Sun 05:14:02 PM 37.2506 -111.1047 71° East 450 518 37,000  Level Denver Center
Sun 05:15:03 PM 37.2900 -110.9561 72° East 451 519 37,000  Level Denver Center
Sun 05:16:05 PM 37.3297 -110.8069 71° East 450 518 37,000  Level Denver Center
Sun 05:17:07 PM 37.3700 -110.6572 71° East 454 522 37,000  Level Denver Center
Sun 05:18:09 PM 37.4078 -110.5075 72° East 452 520 37,000  Level Denver Center
Sun 05:19:11 PM 37.4492 -110.3572 71° East 454 522 37,000  Level Denver Center
Sun 05:20:12 PM 37.4919 -110.1906 72° East 455 524 37,000  Level Denver Center
Sun 05:21:14 PM 37.5350 -110.0211 72° East 454 522 37,000  Level Denver Center
Sun 05:22:16 PM 37.5717 -109.8756 72° East 455 524 37,000  Level Denver Center
Sun 05:23:18 PM 37.6089 -109.7297 72° East 456 525 37,000  Level Denver Center
Sun 05:24:20 PM 37.6531 -109.5583 72° East 458 527 37,000  Level Denver Center
Sun 05:25:22 PM 37.6889 -109.4117 73° East 456 525 37,000  Level Denver Center
Sun 05:26:23 PM 37.7328 -109.2400 72° East 458 527 37,000  Level Denver Center
Sun 05:27:25 PM 37.7683 -109.0925 73° East 458 527 37,000  Level Denver Center
Sun 05:28:27 PM 37.8106 -108.9222 73° East 455 524 37,000  Level Denver Center
Sun 05:29:29 PM 37.8428 -108.7731 75° East 458 527 37,000  Level Denver Center
Sun 05:34:47 PM 38.0120 -107.9530 75° East 453 521 37,000  Level FlightAware ADS-B
Sun 05:35:27 PM 38.0330 -107.8500 75° East 453 521 37,000  Level FlightAware ADS-B
Sun 05:36:12 PM 38.0560 -107.7340 76° East 455 524 37,000  Level FlightAware ADS-B
Sun 05:36:52 PM 38.0770 -107.6320 75° East 456 525 37,000  Level FlightAware ADS-B
Sun 05:37:27 PM 38.0960 -107.5400 75° East 458 527 37,000  Level FlightAware ADS-B
Sun 05:38:17 PM 38.1220 -107.4100 76° East 457 526 37,000  Level FlightAware ADS-B
Sun 05:38:57 PM 38.1420 -107.3110 76° East 456 525 37,000  Level FlightAware ADS-B
Sun 05:39:42 PM 38.1660 -107.1880 76° East 457 526 37,000  Level FlightAware ADS-B
Sun 05:40:22 PM 38.1860 -107.0840 76° East 455 524 37,000  Level FlightAware ADS-B
Sun 05:40:48 PM 38.2008 -107.0110 76° East 456 525 37,000  Level FlightAware ADS-B
Sun 05:41:19 PM 38.2170 -106.9290 76° East 458 527 37,000  Level FlightAware ADS-B
Sun 05:41:50 PM 38.2327 -106.8490 76° East 458 527 37,000  Level FlightAware ADS-B
Sun 05:42:20 PM 38.2480 -106.7700 76° East 462 532 37,000  Level FlightAware ADS-B
Sun 05:42:50 PM 38.2635 -106.6910 76° East 462 532 37,000  Level FlightAware ADS-B
Sun 05:43:33 PM 38.2853 -106.5780 76° East 462 532 37,000  Level FlightAware ADS-B
Sun 05:44:03 PM 38.3006 -106.4980 76° East 462 532 37,000  Level FlightAware ADS-B
Sun 05:44:36 PM 38.3176 -106.4100 76° East 461 531 37,000  Level FlightAware ADS-B
Sun 05:45:17 PM 38.3370 -106.3100 76° East 462 532 37,000  Level FlightAware ADS-B
Sun 05:45:27 PM 38.3428 -106.2770 77° East 462 532 37,000  Level FlightAware ADS-B
Sun 05:45:59 PM 38.3590 -106.1920 76° East 462 532 37,000  Level FlightAware ADS-B
Sun 05:46:29 PM 38.3738 -106.1130 77° East 462 532 37,000  Level FlightAware ADS-B
Sun 05:46:59 PM 38.3888 -106.0340 76° East 462 532 37,000  Level FlightAware ADS-B
Sun 05:47:31 PM 38.4044 -105.9510 76° East 460 529 37,000  Level FlightAware ADS-B
Sun 05:48:01 PM 38.4194 -105.8710 77° East 458 527 37,000  Level FlightAware ADS-B
Sun 05:48:31 PM 38.4339 -105.7920 77° East 457 526 37,000  Level FlightAware ADS-B
Sun 05:49:02 PM 38.4492 -105.7110 76° East 456 525 37,000  Level FlightAware ADS-B
Sun 05:49:33 PM 38.4640 -105.6310 77° East 456 525 37,000  Level FlightAware ADS-B
Sun 05:50:03 PM 38.4784 -105.5520 77° East 455 524 37,000  Level FlightAware ADS-B
Sun 05:50:33 PM 38.4930 -105.4730 77° East 455 524 37,000  Level FlightAware ADS-B
Sun 05:51:04 PM 38.5074 -105.3930 77° East 455 524 37,000  Level FlightAware ADS-B
Sun 05:51:34 PM 38.5218 -105.3140 77° East 455 524 37,000  Level FlightAware ADS-B
Sun 05:52:05 PM 38.5364 -105.2330 77° East 455 524 37,000  Level FlightAware ADS-B
Sun 05:52:35 PM 38.5507 -105.1540 77° East 455 524 37,000  Level FlightAware ADS-B
Sun 05:53:09 PM 38.5666 -105.0660 77° East 454 522 37,000  Level FlightAware ADS-B
Sun 05:53:42 PM 38.5819 -104.9810 77° East 454 522 37,000  Level FlightAware ADS-B
Sun 05:54:16 PM 38.5977 -104.8920 77° East 454 522 37,000  Level FlightAware ADS-B
Sun 05:55:12 PM 38.6238 -104.7440 77° East 454 522 37,000  Level FlightAware ADS-B
Sun 05:55:43 PM 38.6380 -104.6630 77° East 454 522 37,000  Level FlightAware ADS-B
Sun 05:56:20 PM 38.6549 -104.5670 77° East 451 519 37,000  Level FlightAware ADS-B
Sun 05:57:04 PM 38.6746 -104.4530 77° East 453 521 37,000  Level FlightAware ADS-B
Sun 05:57:35 PM 38.6884 -104.3740 77° East 454 522 37,000  Level FlightAware ADS-B
Sun 05:58:05 PM 38.7021 -104.2940 78° East 455 524 37,000  Level FlightAware ADS-B
Sun 05:58:35 PM 38.7156 -104.2150 78° East 454 522 37,000  Level FlightAware ADS-B
Sun 05:59:05 PM 38.7292 -104.1350 78° East 453 521 37,000  Level FlightAware ADS-B
Sun 05:59:36 PM 38.7430 -104.0550 78° East 453 521 37,000  Level FlightAware ADS-B
Sun 06:00:07 PM 38.7567 -103.9740 78° East 453 521 37,000  Level FlightAware ADS-B
Sun 06:00:37 PM 38.7701 -103.8950 78° East 455 524 37,000  Level FlightAware ADS-B
Sun 06:01:08 PM 38.7835 -103.8150 78° East 455 524 37,000  Level FlightAware ADS-B
Sun 06:01:38 PM 38.7967 -103.7350 78° East 455 524 37,000  Level FlightAware ADS-B
Sun 06:02:00 PM 38.8063 -103.6780 78° East 456 525 37,000  Level FlightAware ADS-B
Sun 06:02:14 PM 38.8114 -103.6400 80° East 457 526 37,000  Level FlightAware ADS-B
Sun 06:02:44 PM 38.8171 -103.5590 85° East 459 528 37,000  Level FlightAware ADS-B
Sun 06:03:14 PM 38.8197 -103.4780 88° East 459 528 37,000  Level FlightAware ADS-B
Sun 06:03:44 PM 38.8214 -103.3960 88° East 459 528 37,000  Level FlightAware ADS-B
Sun 06:04:15 PM 38.8233 -103.3130 88° East 459 528 37,000  Level FlightAware ADS-B
Sun 06:04:45 PM 38.8250 -103.2310 88° East 458 527 37,000  Level FlightAware ADS-B
Sun 06:05:16 PM 38.8269 -103.1450 88° East 458 527 37,000  Level FlightAware ADS-B
Sun 06:05:48 PM 38.8289 -103.0590 88° East 458 527 37,000  Level FlightAware ADS-B
Sun 06:06:18 PM 38.8307 -102.9780 88° East 459 528 37,000  Level FlightAware ADS-B
Sun 06:06:49 PM 38.8324 -102.8950 88° East 458 527 37,000  Level FlightAware ADS-B
Sun 06:07:19 PM 38.8339 -102.8140 89° East 458 527 37,000  Level FlightAware ADS-B
Sun 06:07:50 PM 38.8356 -102.7280 89° East 458 527 37,000  Level FlightAware ADS-B
Sun 06:08:20 PM 38.8370 -102.6470 89° East 457 526 37,000  Level FlightAware ADS-B
Sun 06:08:51 PM 38.8385 -102.5660 89° East 457 526 37,000  Level FlightAware ADS-B
Sun 06:09:21 PM 38.8399 -102.4840 89° East 456 525 37,000  Level FlightAware ADS-B
Sun 06:09:51 PM 38.8413 -102.4030 89° East 456 525 37,000  Level FlightAware ADS-B
Sun 06:10:22 PM 38.8425 -102.3190 89° East 455 524 37,000  Level FlightAware ADS-B
Sun 06:10:53 PM 38.8437 -102.2350 89° East 453 521 37,000  Level FlightAware ADS-B
Sun 06:11:24 PM 38.8449 -102.1540 89° East 453 521 37,000  Level FlightAware ADS-B
Sun 06:11:54 PM 38.8461 -102.0720 89° East 452 520 37,000  Level FlightAware ADS-B
Sun 06:12:24 PM 38.8472 -101.9910 89° East 453 521 37,000  Level FlightAware ADS-B
Sun 06:12:56 PM 38.8480 -101.9070 89° East 452 520 37,000  Level FlightAware ADS-B
Sun 06:13:26 PM 38.8490 -101.8260 89° East 452 520 37,000  Level FlightAware ADS-B
Sun 06:13:56 PM 38.8499 -101.7450 89° East 451 519 37,000  Level FlightAware ADS-B
Sun 06:14:27 PM 38.8507 -101.6640 89° East 452 520 37,000  Level FlightAware ADS-B
Sun 06:14:57 PM 38.8514 -101.5830 89° East 452 520 37,000  Level FlightAware ADS-B
Sun 06:15:52 PM 38.8517 -101.4525 89° East 446 513 37,000  Level Denver Center
Sun 06:16:54 PM 38.8536 -101.2711 89° East 452 520 37,000  Level Denver Center
Sun 06:17:56 PM 38.8542 -101.1169 90° East 452 520 37,000  Level Denver Center
Sun 06:18:58 PM 38.8550 -100.9611 90° East 455 524 37,000  Level Denver Center
Sun 06:20:00 PM 38.8550 -100.7783 90° East 458 527 37,000  Level Denver Center
Sun 06:21:02 PM 38.8556 -100.6236 90° East 454 522 37,000  Level Denver Center
Sun 06:22:04 PM 38.8550 -100.4400 90° East 458 527 37,000  Level Denver Center
Sun 06:23:06 PM 38.8556 -100.2856 90° East 455 524 37,000  Level Denver Center
Sun 06:24:07 PM 38.8547 -100.1031 90° East 456 525 37,000  Level Denver Center
Sun 06:25:09 PM 38.8542 -99.9475 90° East 456 525 37,000  Level Denver Center
Sun 06:26:11 PM 38.8528 -99.7886 91° East 460 529 37,000  Level Denver Center
Sun 06:27:13 PM 38.8508 -99.6061 91° East 459 528 37,000  Level Denver Center
Sun 06:28:15 PM 38.8492 -99.4497 91° East 459 528 37,000 290 Level Denver Center
Sun 06:29:17 PM 38.8486 -99.2647 90° East 462 532 37,600 823 Climbing Denver Center
Sun 06:30:19 PM 38.8558 -99.1081 87° East 462 532 38,700 641 Climbing Denver Center
Sun 06:31:28 PM 38.8664 -98.9292 86° East 456 525 39,000 137 Climbing Kansas City Center
Sun 06:32:30 PM 38.8750 -98.7669 86° East 456 525 39,000  Level Kansas City Center
Sun 06:33:32 PM 38.8839 -98.5714 87° East 457 526 39,000  Level Kansas City Center
Sun 06:39:42 PM 38.9340 -97.5700 87° East 460 529 39,000  Level FlightAware ADS-B
Sun 06:40:17 PM 38.9470 -97.4770 80° East 459 528 39,000  Level FlightAware ADS-B
Sun 06:41:02 PM 38.9630 -97.3680 79° East 459 528 39,000  Level FlightAware ADS-B
Sun 06:41:42 PM 38.9770 -97.2770 79° East 459 528 39,000  Level FlightAware ADS-B
Sun 06:42:22 PM 38.9910 -97.1860 79° East 459 528 39,000  Level FlightAware ADS-B
Sun 06:43:02 PM 39.0040 -97.0940 80° East 459 528 39,000  Level FlightAware ADS-B
Sun 06:43:52 PM 39.0220 -96.9800 78° East 459 528 39,000  Level FlightAware ADS-B
Sun 06:44:32 PM 39.0350 -96.8890 80° East 459 528 39,000  Level FlightAware ADS-B
Sun 06:45:02 PM 39.0460 -96.8210 78° East 459 528 39,000  Level FlightAware ADS-B
Sun 06:45:42 PM 39.0590 -96.7290 80° East 459 528 39,000  Level FlightAware ADS-B
Sun 06:46:22 PM 39.0730 -96.6380 79° East 459 528 39,000  Level FlightAware ADS-B
Sun 06:47:02 PM 39.0870 -96.5470 79° East 459 528 39,000  Level FlightAware ADS-B
Sun 06:47:52 PM 39.1040 -96.4330 79° East 459 528 39,000  Level FlightAware ADS-B
Sun 06:48:32 PM 39.1200 -96.1510 86° East 453 521 39,000  Level FlightAware ADS-B
Sun 06:49:12 PM 39.1330 -96.0450 81° East 452 520 39,000  Level FlightAware ADS-B
Sun 06:49:52 PM 39.1450 -95.9410 82° East 452 520 39,000  Level FlightAware ADS-B
Sun 06:50:37 PM 39.1590 -95.8310 81° East 452 520 39,000  Level FlightAware ADS-B
Sun 06:51:22 PM 39.1750 -95.7000 81° East 452 520 39,000  Level FlightAware ADS-B
Sun 06:52:02 PM 39.1860 -95.6030 82° East 452 520 39,000  Level FlightAware ADS-B
Sun 06:52:37 PM 39.1970 -95.5080 81° East 451 519 39,000  Level FlightAware ADS-B
Sun 06:53:27 PM 39.2130 -95.3710 81° East 451 519 39,000  Level FlightAware ADS-B
Sun 06:54:07 PM 39.2260 -95.2610 81° East 450 518 39,000  Level FlightAware ADS-B
Sun 06:54:52 PM 39.2400 -95.1410 81° East 449 517 39,000  Level FlightAware ADS-B
Sun 06:55:32 PM 39.2520 -95.0340 82° East 448 516 39,000  Level FlightAware ADS-B
Sun 06:56:17 PM 39.2650 -94.9190 82° East 448 516 39,000  Level FlightAware ADS-B
Sun 06:56:57 PM 39.2770 -94.8140 82° East 448 516 39,000  Level FlightAware ADS-B
Sun 06:57:37 PM 39.2890 -94.7050 82° East 449 517 39,000  Level FlightAware ADS-B
Sun 06:58:22 PM 39.3050 -94.5890 80° East 449 517 39,000  Level FlightAware ADS-B
Sun 06:59:02 PM 39.3190 -94.4830 80° East 450 518 39,000  Level FlightAware ADS-B
Sun 06:59:37 PM 39.3320 -94.3880 80° East 449 517 39,000  Level FlightAware ADS-B
Sun 07:00:17 PM 39.3450 -94.2810 81° East 450 518 39,000  Level FlightAware ADS-B
Sun 07:01:02 PM 39.3600 -94.1640 81° East 450 518 39,000  Level FlightAware ADS-B
Sun 07:01:27 PM 39.3680 -94.0970 81° East 450 518 39,000  Level FlightAware ADS-B
Sun 07:02:12 PM 39.3830 -93.9790 81° East 450 518 39,000  Level FlightAware ADS-B
Sun 07:02:52 PM 39.3960 -93.8740 81° East 452 520 39,000  Level FlightAware ADS-B
Sun 07:03:37 PM 39.4110 -93.7520 81° East 452 520 39,000  Level FlightAware ADS-B
Sun 07:04:17 PM 39.4250 -93.6440 80° East 453 521 39,000  Level FlightAware ADS-B
Sun 07:05:02 PM 39.4390 -93.5260 81° East 454 522 39,000  Level FlightAware ADS-B
Sun 07:05:42 PM 39.4520 -93.4180 81° East 454 522 39,000  Level FlightAware ADS-B
Sun 07:06:22 PM 39.4650 -93.3120 81° East 454 522 39,000  Level FlightAware ADS-B
Sun 07:07:07 PM 39.4790 -93.1880 82° East 455 524 39,000  Level FlightAware ADS-B
Sun 07:07:47 PM 39.4920 -93.0790 81° East 456 525 39,000  Level FlightAware ADS-B
Sun 07:08:32 PM 39.5050 -92.9660 81° East 455 524 39,000  Level FlightAware ADS-B
Sun 07:09:22 PM 39.5210 -92.8340 81° East 455 524 39,000  Level FlightAware ADS-B
Sun 07:10:07 PM 39.5350 -92.7040 82° East 455 524 39,000  Level FlightAware ADS-B
Sun 07:10:52 PM 39.5490 -92.5870 81° East 455 524 39,000  Level FlightAware ADS-B
Sun 07:11:37 PM 39.5620 -92.4640 82° East 455 524 39,000  Level FlightAware ADS-B
Sun 07:12:27 PM 39.5770 -92.3270 82° East 456 525 39,000  Level FlightAware ADS-B
Sun 07:13:02 PM 39.5880 -92.2330 81° East 457 526 39,000  Level FlightAware ADS-B
Sun 07:13:52 PM 39.6020 -92.1030 82° East 457 526 39,000  Level FlightAware ADS-B
Sun 07:14:32 PM 39.6140 -91.9920 82° East 457 526 39,000  Level FlightAware ADS-B
Sun 07:15:12 PM 39.6240 -91.8950 82° East 457 526 39,000  Level FlightAware ADS-B
Sun 07:15:57 PM 39.6380 -91.7610 82° East 457 526 39,000  Level FlightAware ADS-B
Sun 07:16:37 PM 39.6490 -91.6600 82° East 457 526 39,000  Level FlightAware ADS-B
Sun 07:17:22 PM 39.6620 -91.5300 83° East 456 525 39,000  Level FlightAware ADS-B
Sun 07:18:02 PM 39.6740 -91.4200 82° East 456 525 39,000  Level FlightAware ADS-B
Sun 07:18:47 PM 39.6860 -91.2970 83° East 455 524 39,000  Level FlightAware ADS-B
Sun 07:19:27 PM 39.6970 -91.1890 82° East 456 525 39,000  Level FlightAware ADS-B
Sun 07:20:07 PM 39.7080 -91.0840 82° East 457 526 39,000  Level FlightAware ADS-B
Sun 07:20:52 PM 39.7190 -90.9680 83° East 458 527 39,000  Level FlightAware ADS-B
Sun 07:21:32 PM 39.7310 -90.8490 82° East 460 529 39,000  Level FlightAware ADS-B
Sun 07:22:12 PM 39.7410 -90.7440 83° East 461 531 39,000  Level FlightAware ADS-B
Sun 07:22:57 PM 39.7530 -90.6150 83° East 462 532 39,000  Level FlightAware ADS-B
Sun 07:23:37 PM 39.7640 -90.5050 83° East 464 534 39,000  Level FlightAware ADS-B
Sun 07:24:12 PM 39.7720 -90.4170 83° East 465 535 39,000  Level FlightAware ADS-B
Sun 07:25:02 PM 39.7860 -90.2700 83° East 467 537 39,000  Level FlightAware ADS-B
Sun 07:25:42 PM 39.7960 -90.1580 83° East 469 540 39,000  Level FlightAware ADS-B
Sun 07:26:27 PM 39.8070 -90.0420 83° East 470 541 39,000  Level FlightAware ADS-B
Sun 07:27:07 PM 39.8170 -89.9230 84° East 470 541 39,000  Level FlightAware ADS-B
Sun 07:27:47 PM 39.8270 -89.8090 83° East 470 541 39,000  Level FlightAware ADS-B
Sun 07:28:32 PM 39.8370 -89.6850 84° East 470 541 39,000  Level FlightAware ADS-B
Sun 07:29:12 PM 39.8390 -89.5740 89° East 471 542 39,000  Level FlightAware ADS-B
Sun 07:30:12 PM 39.8400 -89.4020 90° East 470 541 39,000  Level FlightAware ADS-B
Sun 07:30:52 PM 39.8410 -89.2960 89° East 467 537 39,000  Level FlightAware ADS-B
Sun 07:31:32 PM 39.8410 -89.1770 90° East 466 536 39,000  Level FlightAware ADS-B
Sun 07:32:12 PM 39.8410 -89.0710 90° East 465 535 39,000  Level FlightAware ADS-B
Sun 07:32:52 PM 39.8410 -88.9590 90° East 465 535 39,000  Level FlightAware ADS-B
Sun 07:33:42 PM 39.8410 -88.8190 90° East 466 536 39,000  Level FlightAware ADS-B
Sun 07:34:22 PM 39.8410 -88.7160 90° East 467 537 39,000  Level FlightAware ADS-B
Sun 07:35:02 PM 39.8410 -88.5870 90° East 469 540 39,000  Level FlightAware ADS-B
Sun 07:35:47 PM 39.8410 -88.4660 90° East 469 540 39,000  Level FlightAware ADS-B
Sun 07:36:27 PM 39.8410 -88.3490 90° East 469 540 39,000  Level FlightAware ADS-B
Sun 07:37:12 PM 39.8400 -88.2230 91° East 470 541 39,000  Level FlightAware ADS-B
Sun 07:37:52 PM 39.8390 -88.1100 91° East 470 541 39,000  Level FlightAware ADS-B
Sun 07:38:32 PM 39.8390 -88.0000 90° East 472 543 39,000  Level FlightAware ADS-B
Sun 07:39:17 PM 39.8380 -87.8670 91° East 473 544 39,000  Level FlightAware ADS-B
Sun 07:39:57 PM 39.8370 -87.7520 91° East 475 547 39,000  Level FlightAware ADS-B
Sun 07:40:52 PM 39.8350 -87.6000 91° East 476 548 39,000  Level FlightAware ADS-B
Sun 07:41:37 PM 39.8340 -87.4800 91° East 477 549 39,000  Level FlightAware ADS-B
Sun 07:42:17 PM 39.8320 -87.3530 91° East 478 550 39,000  Level FlightAware ADS-B
Sun 07:43:02 PM 39.8310 -87.2320 91° East 479 551 39,000  Level FlightAware ADS-B
Sun 07:43:32 PM 39.8300 -87.1420 91° East 479 551 39,000  Level FlightAware ADS-B
Sun 07:44:37 PM 39.8270 -86.9520 91° East 481 554 39,000  Level FlightAware ADS-B
Sun 07:45:17 PM 39.8250 -86.8370 91° East 482 555 39,000  Level FlightAware ADS-B
Sun 07:46:02 PM 39.8230 -86.7080 91° East 484 557 39,000  Level FlightAware ADS-B
Sun 07:46:47 PM 39.8200 -86.5750 92° East 485 558 39,000  Level FlightAware ADS-B
Sun 07:47:27 PM 39.8180 -86.4610 91° East 486 559 39,000  Level FlightAware ADS-B
Sun 07:48:07 PM 39.8240 -86.3450 86° East 486 559 39,000  Level FlightAware ADS-B
Sun 07:48:42 PM 39.8430 -86.2470 76° East 487 560 39,000  Level FlightAware ADS-B
Sun 07:49:27 PM 39.8700 -86.1180 75° East 488 562 39,000  Level FlightAware ADS-B
Sun 07:50:17 PM 39.8990 -85.9890 74° East 488 562 39,000  Level FlightAware ADS-B
Sun 07:50:57 PM 39.9250 -85.8650 75° East 489 563 39,000  Level FlightAware ADS-B
Sun 07:51:37 PM 39.9490 -85.7510 75° East 488 562 39,000  Level FlightAware ADS-B
Sun 07:52:22 PM 39.9740 -85.6300 75° East 486 559 39,000  Level FlightAware ADS-B
Sun 07:53:02 PM 39.9980 -85.5140 75° East 485 558 39,000  Level FlightAware ADS-B
Sun 07:53:42 PM 40.0220 -85.3970 75° East 485 558 39,000  Level FlightAware ADS-B
Sun 07:54:27 PM 40.0520 -85.2740 72° East 484 557 39,000  Level FlightAware ADS-B
Sun 07:55:12 PM 40.0950 -85.1560 64° Northeast 482 555 39,000  Level FlightAware ADS-B
Sun 07:55:52 PM 40.1360 -85.0480 64° Northeast 482 555 39,000  Level FlightAware ADS-B
Sun 07:56:27 PM 40.1690 -84.9600 64° Northeast 481 554 39,000  Level FlightAware ADS-B
Sun 07:57:12 PM 40.2150 -84.8410 63° Northeast 482 555 39,000  Level FlightAware ADS-B
Sun 07:57:57 PM 40.2580 -84.7280 63° Northeast 481 554 39,000  Level FlightAware ADS-B
Sun 07:58:42 PM 40.3040 -84.6070 63° Northeast 481 554 39,000  Level FlightAware ADS-B
Sun 07:59:22 PM 40.3440 -84.5020 63° Northeast 481 554 39,000  Level FlightAware ADS-B
Sun 08:00:02 PM 40.3840 -84.3990 63° Northeast 480 552 39,000  Level FlightAware ADS-B
Sun 08:00:47 PM 40.4270 -84.2830 64° Northeast 481 554 39,000  Level FlightAware ADS-B
Sun 08:01:27 PM 40.4670 -84.1760 64° Northeast 481 554 39,000  Level FlightAware ADS-B
Sun 08:02:07 PM 40.5070 -84.0680 64° Northeast 481 554 39,000  Level FlightAware ADS-B
Sun 08:02:52 PM 40.5500 -83.9540 64° Northeast 481 554 39,000  Level FlightAware ADS-B
Sun 08:03:32 PM 40.5900 -83.8460 64° Northeast 481 554 39,000  Level FlightAware ADS-B
Sun 08:04:17 PM 40.6340 -83.7270 64° Northeast 481 554 39,000  Level FlightAware ADS-B
Sun 08:04:57 PM 40.6730 -83.6210 64° Northeast 482 555 39,000  Level FlightAware ADS-B
Sun 08:05:37 PM 40.7110 -83.5200 64° Northeast 480 552 39,000  Level FlightAware ADS-B
Sun 08:06:22 PM 40.7540 -83.4010 64° Northeast 480 552 39,000  Level FlightAware ADS-B
Sun 08:07:02 PM 40.7920 -83.2980 64° Northeast 481 554 39,000  Level FlightAware ADS-B
Sun 08:07:42 PM 40.8290 -83.1930 65° Northeast 480 552 39,000  Level FlightAware ADS-B
Sun 08:08:27 PM 40.8730 -83.0720 64° Northeast 481 554 39,000  Level FlightAware ADS-B
Sun 08:09:07 PM 40.9130 -82.9630 64° Northeast 481 554 39,000  Level FlightAware ADS-B
Sun 08:09:47 PM 40.9470 -82.8670 65° Northeast 482 555 39,000  Level FlightAware ADS-B
Sun 08:10:32 PM 40.9900 -82.7470 65° Northeast 483 556 39,000  Level FlightAware ADS-B
Sun 08:11:17 PM 41.0360 -82.6180 65° Northeast 481 554 39,000  Level FlightAware ADS-B
Sun 08:11:57 PM 41.0710 -82.5200 65° Northeast 481 554 39,000  Level FlightAware ADS-B
Sun 08:12:37 PM 41.1110 -82.4050 65° Northeast 482 555 39,000  Level FlightAware ADS-B
Sun 08:13:22 PM 41.1530 -82.2870 65° Northeast 481 554 39,000  Level FlightAware ADS-B
Sun 08:14:02 PM 41.1920 -82.1760 65° Northeast 482 555 39,000  Level FlightAware ADS-B
Sun 08:14:42 PM 41.2300 -82.0670 65° Northeast 483 556 39,000  Level FlightAware ADS-B
Sun 08:15:27 PM 41.2710 -81.9480 65° Northeast 485 558 39,000  Level FlightAware ADS-B
Sun 08:16:07 PM 41.3080 -81.8410 65° Northeast 486 559 39,000  Level FlightAware ADS-B
Sun 08:16:52 PM 41.3510 -81.7160 65° Northeast 486 559 39,000  Level FlightAware ADS-B
Sun 08:17:32 PM 41.3870 -81.6110 65° Northeast 486 559 39,000  Level FlightAware ADS-B
Sun 08:18:17 PM 41.4300 -81.4850 65° Northeast 487 560 39,000  Level FlightAware ADS-B
Sun 08:18:57 PM 41.4670 -81.3760 66° East 486 559 39,000  Level FlightAware ADS-B
Sun 08:19:37 PM 41.4920 -81.2630 74° East 487 560 39,000  Level FlightAware ADS-B
Sun 08:20:22 PM 41.5110 -81.1260 79° East 489 563 39,000  Level FlightAware ADS-B
Sun 08:21:02 PM 41.5260 -81.0110 80° East 489 563 39,000  Level FlightAware ADS-B
Sun 08:21:47 PM 41.5430 -80.8740 81° East 490 564 39,000  Level FlightAware ADS-B
Sun 08:22:27 PM 41.5570 -80.7600 81° East 491 565 39,000  Level FlightAware ADS-B
Sun 08:23:07 PM 41.5720 -80.6350 81° East 491 565 39,000  Level FlightAware ADS-B
Sun 08:23:52 PM 41.5870 -80.5050 81° East 490 564 39,000  Level FlightAware ADS-B
Sun 08:24:32 PM 41.6010 -80.3850 81° East 489 563 39,000  Level FlightAware ADS-B
Sun 08:25:12 PM 41.6160 -80.2640 81° East 489 563 39,000  Level FlightAware ADS-B
Sun 08:25:57 PM 41.6310 -80.1320 81° East 490 564 39,000  Level FlightAware ADS-B
Sun 08:26:37 PM 41.6450 -80.0100 81° East 490 564 39,000  Level FlightAware ADS-B
Sun 08:27:22 PM 41.6600 -79.8810 81° East 490 564 39,000  Level FlightAware ADS-B
Sun 08:28:02 PM 41.6740 -79.7540 82° East 491 565 39,000  Level FlightAware ADS-B
Sun 08:28:42 PM 41.6880 -79.6340 81° East 491 565 39,000  Level FlightAware ADS-B
Sun 08:29:27 PM 41.7020 -79.5030 82° East 492 566 39,000  Level FlightAware ADS-B
Sun 08:30:07 PM 41.7160 -79.3810 81° East 493 567 39,000  Level FlightAware ADS-B
Sun 08:30:52 PM 41.7290 -79.2580 82° East 494 568 39,000  Level FlightAware ADS-B
Sun 08:31:32 PM 41.7420 -79.1360 82° East 493 567 39,000  Level FlightAware ADS-B
Sun 08:32:12 PM 41.7540 -79.0260 82° East 493 567 39,000  Level FlightAware ADS-B
Sun 08:32:57 PM 41.7680 -78.8910 82° East 494 568 39,000  Level FlightAware ADS-B
Sun 08:33:37 PM 41.7810 -78.7590 82° East 494 568 39,000  Level FlightAware ADS-B
Sun 08:34:22 PM 41.7950 -78.6220 82° East 494 568 39,000  Level FlightAware ADS-B
Sun 08:35:02 PM 41.8070 -78.5020 82° East 494 568 39,000  Level FlightAware ADS-B
Sun 08:35:42 PM 41.8200 -78.3800 82° East 494 568 39,000  Level FlightAware ADS-B
Sun 08:36:27 PM 41.8320 -78.2520 83° East 495 570 39,000  Level FlightAware ADS-B
Sun 08:37:07 PM 41.8450 -78.1220 82° East 493 567 39,000  Level FlightAware ADS-B
Sun 08:37:47 PM 41.8560 -78.0040 83° East 492 566 39,000  Level FlightAware ADS-B
Sun 08:38:47 PM 41.8560 -77.8310 90° East 480 552 39,000  Level FlightAware ADS-B
Sun 08:39:27 PM 41.8260 -77.7100 108° East 476 548 39,000  Level FlightAware ADS-B
Sun 08:40:07 PM 41.7970 -77.5980 109° East 474 545 39,000  Level FlightAware ADS-B
Sun 08:40:52 PM 41.7640 -77.4750 110° East 474 545 39,000  Level FlightAware ADS-B
Sun 08:41:32 PM 41.7340 -77.3650 110° East 475 547 39,000  Level FlightAware ADS-B
Sun 08:42:12 PM 41.7040 -77.2540 110° East 479 551 39,000  Level FlightAware ADS-B
Sun 08:42:55 PM 41.6674 -77.1163 110° East 486 559 39,000  Level FlightAware ADS-B
Sun 08:43:32 PM 41.6391 -77.0114 110° East 491 565 39,000  Level FlightAware ADS-B
Sun 08:44:02 PM 41.6155 -76.9249 110° East 496 571 39,000  Level FlightAware ADS-B
Sun 08:44:35 PM 41.5894 -76.8291 110° East 500 575 39,000  Level FlightAware ADS-B
Sun 08:45:08 PM 41.5637 -76.7349 110° East 505 581 39,000  Level FlightAware ADS-B
Sun 08:45:38 PM 41.5393 -76.6465 110° East 509 586 39,000 -100 Level FlightAware ADS-B
Sun 08:46:08 PM 41.5149 -76.5581 110° East 512 589 38,900 -900 Descending FlightAware ADS-B
Sun 08:46:38 PM 41.4901 -76.4680 110° East 515 593 38,100 -1,839 Descending FlightAware ADS-B
Sun 08:47:10 PM 41.4643 -76.3751 110° East 517 595 37,000 -2,190 Descending FlightAware ADS-B
Sun 08:47:41 PM 41.4384 -76.2825 110° East 519 597 35,800 -2,459 Descending FlightAware ADS-B
Sun 08:48:11 PM 41.4128 -76.1918 111° Southeast 518 596 34,500 -2,364 Descending FlightAware ADS-B
Sun 08:48:47 PM 41.3824 -76.0834 110° East 513 590 33,200 -1,970 Descending FlightAware ADS-B
Sun 08:49:18 PM 41.3573 -75.9937 110° East 501 577 32,300 -2,066 Descending FlightAware ADS-B
Sun 08:49:48 PM 41.3335 -75.9083 110° East 486 559 31,100 -2,459 Descending FlightAware ADS-B
Sun 08:50:19 PM 41.3093 -75.8234 111° Southeast 475 547 29,800 -2,557 Descending FlightAware ADS-B
Sun 08:50:49 PM 41.2858 -75.7418 111° Southeast 466 536 28,500 -2,520 Descending FlightAware ADS-B
Sun 08:51:09 PM 41.2701 -75.6903 112° Southeast 459 528 27,700 -2,160 Descending FlightAware ADS-B
Sun 08:51:39 PM 41.2447 -75.6133 114° Southeast 452 520 26,700 -2,000 Descending FlightAware ADS-B
Sun 08:52:09 PM 41.2193 -75.5372 114° Southeast 445 512 25,700 -2,032 Descending FlightAware ADS-B
Sun 08:52:41 PM 41.1927 -75.4581 114° Southeast 438 504 24,600 -2,000 Descending FlightAware ADS-B
Sun 08:53:15 PM 41.1656 -75.3769 114° Southeast 424 488 23,500 -1,688 Descending FlightAware ADS-B
Sun 08:53:45 PM 41.1416 -75.3057 114° Southeast 409 471 22,800 -885 Descending FlightAware ADS-B
Sun 08:54:16 PM 41.1181 -75.2368 114° Southeast 408 470 22,600 -387 Descending FlightAware ADS-B
Sun 08:54:47 PM 41.0937 -75.1649 114° Southeast 411 473 22,400 -484 Descending FlightAware ADS-B
Sun 08:55:18 PM 41.0700 -75.0948 114° Southeast 413 475 22,100 -492 Descending FlightAware ADS-B
Sun 08:55:48 PM 41.0461 -75.0246 114° Southeast 414 476 21,900 -421 Descending FlightAware ADS-B
Sun 08:56:15 PM 41.0248 -74.9620 114° Southeast 414 476 21,700 -387 Descending FlightAware ADS-B
Sun 08:56:19 PM 41.0221 -74.9541 114° Southeast 414 476 21,700 -500 Level FlightAware ADS-B
Sun 08:56:39 PM 41.0065 -74.9065 113° Southeast 413 475 21,500 -692 Descending FlightAware ADS-B
Sun 08:56:45 PM 41.0027 -74.8928 110° East 413 475 21,400 -632 Descending FlightAware ADS-B
Sun 08:56:58 PM 40.9957 -74.8607 106° East 413 475 21,300 -400 Descending FlightAware ADS-B
Sun 08:57:00 PM 40.9948 -74.8559 104° East 413 475 21,300 -522 Level FlightAware ADS-B
Sun 08:57:21 PM 40.9874 -74.8042 101° East 412 474 21,100 -400 Descending FlightAware ADS-B
Sun 08:57:30 PM 40.9848 -74.7819 99° East 412 474 21,100 -188 Level FlightAware ADS-B
Sun 08:57:53 PM 40.9786 -74.7244 98° East 408 470 21,000 -182 Descending FlightAware ADS-B
Sun 08:58:03 PM 40.9763 -74.7012 97° East 408 470 21,000  Level FlightAware ADS-B
Sun 08:58:24 PM 40.9708 -74.6489 98° East 408 470 21,000 -200 Level FlightAware ADS-B
Sun 08:58:33 PM 40.9683 -74.6264 98° East 403 464 20,900 -1,125 Descending FlightAware ADS-B
Sun 08:58:56 PM 40.9623 -74.5713 98° East 403 464 20,400 -857 Descending FlightAware ADS-B
Sun 08:59:29 PM 40.9534 -74.4899 98° East 398 458 20,100 -462 Descending FlightAware ADS-B
Sun 09:00:01 PM 40.9447 -74.4131 99° East 395 455 19,900 -381 Descending FlightAware ADS-B
Sun 09:00:32 PM 40.9364 -74.3407 99° East 374 430 19,700 -462 Descending FlightAware ADS-B
Sun 09:00:53 PM 40.9311 -74.2959 99° East 361 415 19,500 -545 Descending FlightAware ADS-B
Sun 09:00:54 PM 40.9306 -74.2930 103° East 360 414 19,500  Level FlightAware ADS-B
Sun 09:01:01 PM 40.9275 -74.2787 106° East 354 407 19,500 -706 Level FlightAware ADS-B
Sun 09:01:11 PM 40.9217 -74.2585 111° Southeast 348 400 19,300 -923 Descending FlightAware ADS-B
Sun 09:01:14 PM 40.9198 -74.2525 113° Southeast 348 400 19,300 -600 Level FlightAware ADS-B
Sun 09:01:41 PM 40.9024 -74.2000 114° Southeast 343 395 19,000 -529 Descending FlightAware ADS-B
Sun 09:01:48 PM 40.8983 -74.1878 114° Southeast 341 392 19,000 -968 Level FlightAware ADS-B
Sun 09:02:12 PM 40.8831 -74.1419 114° Southeast 338 389 18,500 -1,200 Descending FlightAware ADS-B
Sun 09:02:18 PM 40.8791 -74.1306 115° Southeast 337 388 18,400 -1,000 Descending FlightAware ADS-B
Sun 09:02:42 PM 40.8638 -74.0856 114° Southeast 332 382 18,000 -1,000 Descending FlightAware ADS-B
Sun 09:02:48 PM 40.8599 -74.0743 115° Southeast 330 380 17,900 -800 Descending FlightAware ADS-B
Sun 09:03:12 PM 40.8447 -74.0309 115° Southeast 319 367 17,600 -774 Descending FlightAware ADS-B
Sun 09:03:19 PM 40.8408 -74.0197 115° Southeast 316 364 17,500 -1,200 Descending FlightAware ADS-B
Sun 09:03:42 PM 40.8262 -73.9791 115° Southeast 310 357 17,000 -1,355 Descending FlightAware ADS-B
Sun 09:03:50 PM 40.8216 -73.9660 115° Southeast 310 357 16,800 -1,548 Descending FlightAware ADS-B
Sun 09:04:13 PM 40.8080 -73.9272 115° Southeast 311 358 16,200 -1,444 Descending FlightAware ADS-B
Sun 09:04:44 PM 40.7895 -73.8740 115° Southeast 308 354 15,500 -1,406 Descending FlightAware ADS-B
Sun 09:05:17 PM 40.7698 -73.8168 114° Southeast 305 351 14,700 -1,429 Descending FlightAware ADS-B
Sun 09:05:47 PM 40.7524 -73.7667 115° Southeast 302 348 14,000 -1,463 Descending FlightAware ADS-B
Sun 09:05:58 PM 40.7448 -73.7497 121° Southeast 299 344 13,700 -1,500 Descending FlightAware ADS-B
Sun 09:06:15 PM 40.7279 -73.7305 139° Southeast 294 338 13,300 -1,750 Descending FlightAware ADS-B
Sun 09:06:46 PM 40.6882 -73.7145 163° South 284 327 12,300 -2,000 Descending FlightAware ADS-B
Sun 09:07:18 PM 40.6484 -73.7015 166° South 274 315 11,200 -2,262 Descending FlightAware ADS-B
Sun 09:07:47 PM 40.6125 -73.6895 166° South 271 312 10,000 -2,133 Descending FlightAware ADS-B
Sun 09:08:03 PM 40.5929 -73.6832 166° South 266 306 9,600 -1,273 Descending FlightAware ADS-B
Sun 09:08:20 PM 40.5735 -73.6772 167° South 260 299 9,300 -909 Descending FlightAware ADS-B
Sun 09:08:36 PM 40.5542 -73.6709 166° South 257 296 9,100 -968 Descending FlightAware ADS-B
Sun 09:08:51 PM 40.5378 -73.6656 166° South 255 293 8,800 -1,200 Descending FlightAware ADS-B
Sun 09:08:56 PM 40.5313 -73.6642 171° South 254 292 8,700 -1,500 Descending FlightAware ADS-B
Sun 09:09:03 PM 40.5234 -73.6641 179° South 252 290 8,500 -1,091 Descending FlightAware ADS-B
Sun 09:09:07 PM 40.5186 -73.6652 190° South 252 290 8,500 -750 Level FlightAware ADS-B
Sun 09:09:11 PM 40.5141 -73.6669 196° South 250 288 8,400 -1,333 Descending FlightAware ADS-B
Sun 09:09:16 PM 40.5090 -73.6704 208° Southwest 249 287 8,300 -1,200 Descending FlightAware ADS-B
Sun 09:09:21 PM 40.5047 -73.6738 211° Southwest 249 287 8,200 -1,286 Descending FlightAware ADS-B
Sun 09:09:30 PM 40.4956 -73.6823 215° Southwest 250 288 8,000 -1,250 Descending FlightAware ADS-B
Sun 09:09:45 PM 40.4817 -73.6965 218° Southwest 249 287 7,700 -581 Descending FlightAware ADS-B
Sun 09:10:01 PM 40.4680 -73.7107 218° Southwest 250 288 7,700 -194 Level FlightAware ADS-B
Sun 09:10:16 PM 40.4537 -73.7253 218° Southwest 253 291 7,600 -375 Descending FlightAware ADS-B
Sun 09:10:33 PM 40.4383 -73.7413 218° Southwest 252 290 7,500 -563 Descending FlightAware ADS-B
Sun 09:10:48 PM 40.4245 -73.7552 217° Southwest 248 285 7,300 -968 Descending FlightAware ADS-B
Sun 09:11:04 PM 40.4099 -73.7699 217° Southwest 247 284 7,000 -1,161 Descending FlightAware ADS-B
Sun 09:11:19 PM 40.3967 -73.7833 218° Southwest 248 285 6,700 -1,263 Descending FlightAware ADS-B
Sun 09:11:23 PM 40.3928 -73.7878 221° Southwest 248 285 6,600 -1,500 Descending FlightAware ADS-B
Sun 09:11:27 PM 40.3898 -73.7917 225° Southwest 247 284 6,500 -2,000 Descending FlightAware ADS-B
Sun 09:11:32 PM 40.3862 -73.7983 234° Southwest 248 285 6,300 -1,800 Descending FlightAware ADS-B
Sun 09:11:37 PM 40.3839 -73.8048 245° Southwest 248 285 6,200 -1,636 Descending FlightAware ADS-B
Sun 09:11:43 PM 40.3819 -73.8134 253° West 247 284 6,000 -2,143 Descending FlightAware ADS-B
Sun 09:11:51 PM 40.3809 -73.8256 264° West 247 284 5,700 -2,250 Descending FlightAware ADS-B
Sun 09:12:07 PM 40.3802 -73.8494 268° West 247 284 5,100 -2,160 Descending FlightAware ADS-B
Sun 09:12:16 PM 40.3801 -73.8620 269° West 247 284 4,800 -2,000 Descending FlightAware ADS-B
Sun 09:12:19 PM 40.3804 -73.8671 274° West 247 284 4,700 -2,571 Descending FlightAware ADS-B
Sun 09:12:23 PM 40.3813 -73.8733 281° West 247 284 4,500 -2,182 Descending FlightAware ADS-B
Sun 09:12:30 PM 40.3835 -73.8817 289° West 247 284 4,300 -2,143 Descending FlightAware ADS-B
Sun 09:12:37 PM 40.3881 -73.8917 301° West 246 283 4,000 -2,500 Descending FlightAware ADS-B
Sun 09:12:42 PM 40.3916 -73.8978 307° West 245 282 3,800 -2,182 Descending FlightAware ADS-B
Sun 09:12:48 PM 40.3959 -73.9049 308° West 244 281 3,600 -2,100 Descending FlightAware ADS-B
Sun 09:13:02 PM 40.4050 -73.9200 308° West 244 281 3,100 -1,227 Descending FlightAware ADS-B
Sun 09:13:32 PM 40.4250 -73.9520 309° West 244 281 2,700 -436 Descending FlightAware ADS-B
Sun 09:13:57 PM 40.4460 -73.9760 319° Northwest 239 275 2,700  Level FlightAware ADS-B
Sun 09:14:12 PM 40.4640 -73.9810 348° North 243 280 2,700  Level FlightAware ADS-B
Sun 09:14:27 PM 40.4800 -73.9800 North 245 282 2,700  Level FlightAware ADS-B
Sun 09:14:57 PM 40.5130 -73.9720 10° North 231 266 2,700  Level FlightAware ADS-B
Sun 09:15:07 PM 40.5220 -73.9680 19° North 221 254 2,700 -600 Level FlightAware ADS-B
Sun 09:15:37 PM 40.5480 -73.9500 28° Northeast 202 232 2,300 -1,091 Descending FlightAware ADS-B
Sun 09:16:02 PM 40.5680 -73.9330 33° Northeast 201 231 1,700 -1,200 Descending FlightAware ADS-B
Sun 09:16:32 PM 40.5900 -73.9150 32° Northeast 199 229 1,200 -500 Descending FlightAware ADS-B
Sun 09:17:02 PM 40.6140 -73.8950 32° Northeast 185 213 1,200 -436 Level FlightAware ADS-B
Sun 09:17:27 PM 40.6320 -73.8820 29° Northeast 168 193 800 -1,050 Descending FlightAware ADS-B
Sun 09:17:42 PM 40.6420 -73.8750 28° Northeast 158 182 500 -533 Descending FlightAware ADS-B
Sun 09:18:12 PM 40.6590 -73.8570 39° Northeast 148 170 400 -109 Descending FlightAware ADS-B
Sun 09:18:37 PM 40.6640 -73.8390 70° East 134 154 400 -150 Level FlightAware ADS-B
Sun 09:18:52 PM 40.6630 -73.8240 95° East 138 159 300 -600 Descending FlightAware ADS-B
Sun 09:19:07 PM 40.6620 -73.8130 97° East 133 153 100 -800 Descending FlightAware ADS-B
Sun 09:19:37 PM 40.6540 -73.7940 119° Southeast 128 147 -200 Descending FlightAware ADS-B

Login

Don't have an account? Register now (free) for customized features, flight alerts, and more!